createdAt,value
2022-08-26T00:00:48.783Z,1.88
2022-08-26T00:03:17.045Z,1.43
2022-08-26T00:05:45.742Z,1.70
2022-08-26T00:08:14.837Z,1.80
2022-08-26T00:10:42.483Z,1.60
2022-08-26T00:13:10.844Z,1.70
2022-08-26T00:15:39.212Z,1.77
2022-08-26T00:18:21.974Z,1.75
2022-08-26T00:20:49.914Z,1.70
2022-08-26T00:23:16.502Z,1.70
2022-08-26T00:25:43.278Z,1.55
2022-08-26T00:28:12.471Z,1.30
2022-08-26T00:30:41.458Z,1.40
2022-08-26T00:33:08.891Z,1.67
2022-08-26T00:35:36.208Z,1.55
2022-08-26T00:38:03.579Z,1.67
2022-08-26T00:40:37.526Z,1.87
2022-08-26T00:43:09.326Z,1.70
2022-08-26T00:45:48.214Z,1.65
2022-08-26T00:48:18.264Z,1.50
2022-08-26T00:50:57.858Z,1.58
2022-08-26T00:53:30.468Z,1.50
2022-08-26T00:56:06.025Z,1.58
2022-08-26T00:58:33.595Z,1.45
2022-08-26T01:01:00.889Z,1.67
2022-08-26T01:03:30.802Z,1.40
2022-08-26T01:05:59.056Z,1.53
2022-08-26T01:08:26.226Z,1.50
2022-08-26T01:10:57.442Z,1.30
2022-08-26T01:13:25.051Z,1.50
2022-08-26T01:15:55.021Z,1.60
2022-08-26T01:18:22.444Z,1.60
2022-08-26T01:20:57.694Z,1.60
2022-08-26T01:23:28.733Z,1.40
2022-08-26T01:26:07.509Z,1.38
2022-08-26T01:28:50.613Z,1.50
2022-08-26T01:31:22.399Z,1.53
2022-08-26T01:34:12.154Z,1.75
2022-08-26T01:36:39.868Z,1.60
2022-08-26T01:39:08.055Z,1.55
2022-08-26T01:41:36.004Z,1.60
2022-08-26T01:44:05.685Z,1.73
2022-08-26T01:46:33.069Z,1.38
2022-08-26T01:49:02.904Z,1.50
2022-08-26T01:51:35.939Z,1.60
2022-08-26T01:54:06.038Z,1.58
2022-08-26T01:56:36.696Z,1.63
2022-08-26T01:59:08.525Z,1.70
2022-08-26T02:01:37.196Z,1.60
2022-08-26T02:04:25.874Z,2.00
2022-08-26T02:06:53.568Z,1.95
2022-08-26T02:09:21.388Z,1.60
2022-08-26T02:11:48.603Z,1.50
2022-08-26T02:14:26.744Z,1.70
2022-08-26T02:16:54.756Z,1.50
2022-08-26T02:19:31.763Z,1.63
2022-08-26T02:22:02.684Z,1.80
2022-08-26T02:24:47.015Z,1.70
2022-08-26T02:27:14.822Z,1.65
2022-08-26T02:29:45.403Z,1.65
2022-08-26T02:32:11.921Z,1.60
2022-08-26T02:34:40.639Z,1.83
2022-08-26T02:37:10.311Z,2.15
2022-08-26T02:39:39.780Z,1.83
2022-08-26T02:42:06.724Z,1.60
2022-08-26T02:44:33.599Z,1.60
2022-08-26T02:47:00.459Z,1.40
2022-08-26T02:49:27.702Z,1.65
2022-08-26T02:51:54.394Z,1.60
2022-08-26T02:54:21.610Z,1.80
2022-08-26T02:56:48.916Z,1.70
2022-08-26T02:59:15.445Z,1.80
2022-08-26T03:01:42.350Z,1.50
2022-08-26T03:04:10.972Z,1.70
2022-08-26T03:06:38.851Z,1.60
2022-08-26T03:09:07.795Z,1.65
2022-08-26T03:11:34.350Z,1.70
2022-08-26T03:14:03.372Z,1.83
2022-08-26T03:16:35.338Z,1.60
2022-08-26T03:19:04.077Z,1.83
2022-08-26T03:21:31.051Z,1.90
2022-08-26T03:23:58.746Z,1.67
2022-08-26T03:26:26.554Z,1.70
2022-08-26T03:28:54.088Z,1.50
2022-08-26T03:31:20.718Z,1.60
2022-08-26T03:33:51.150Z,1.70
2022-08-26T03:36:19.062Z,1.60
2022-08-26T03:38:45.929Z,1.88
2022-08-26T03:41:12.445Z,2.05
2022-08-26T03:43:39.660Z,1.90
2022-08-26T03:46:12.103Z,2.00
2022-08-26T03:48:39.644Z,1.60
2022-08-26T03:51:13.943Z,1.80
2022-08-26T03:53:45.808Z,1.80
2022-08-26T03:56:12.670Z,2.00
2022-08-26T03:58:39.596Z,1.90
2022-08-26T04:01:09.499Z,1.80
2022-08-26T04:03:35.946Z,1.80
2022-08-26T04:06:02.450Z,1.90
2022-08-26T04:08:28.942Z,2.00
2022-08-26T04:10:55.459Z,2.17
2022-08-26T04:13:21.996Z,2.00
2022-08-26T04:15:49.077Z,1.83
2022-08-26T04:18:16.071Z,2.00
2022-08-26T04:20:45.479Z,2.10
2022-08-26T04:23:11.906Z,2.30
2022-08-26T04:25:38.333Z,2.20
2022-08-26T04:28:07.042Z,2.20
2022-08-26T04:30:37.565Z,2.30
2022-08-26T04:33:04.348Z,2.15
2022-08-26T04:35:39.646Z,2.10
2022-08-26T04:38:10.348Z,2.00
2022-08-26T04:40:37.070Z,2.13
2022-08-26T04:43:05.531Z,2.38
2022-08-26T04:45:32.019Z,2.78
2022-08-26T04:47:58.474Z,2.25
2022-08-26T04:50:25.278Z,2.00
2022-08-26T04:52:51.725Z,2.15
2022-08-26T04:55:18.522Z,2.30
2022-08-26T04:57:46.343Z,1.83
2022-08-26T05:00:13.165Z,1.95
2022-08-26T05:02:40.172Z,1.80
2022-08-26T05:05:07.639Z,1.95
2022-08-26T05:07:35.149Z,1.90
2022-08-26T05:10:03.401Z,1.90
2022-08-26T05:12:30.488Z,1.73
2022-08-26T05:14:57.168Z,1.67
2022-08-26T05:17:23.977Z,1.70
2022-08-26T05:19:50.477Z,1.90
2022-08-26T05:22:17.391Z,2.50
2022-08-26T05:24:44.938Z,2.05
2022-08-26T05:27:12.524Z,1.77
2022-08-26T05:29:40.226Z,1.88
2022-08-26T05:32:07.066Z,1.90
2022-08-26T05:34:33.745Z,1.60
2022-08-26T05:37:00.203Z,2.00
2022-08-26T05:39:26.679Z,1.70
2022-08-26T05:41:53.138Z,1.70
2022-08-26T05:44:19.622Z,1.80
2022-08-26T05:46:46.310Z,1.60
2022-08-26T05:49:14.382Z,1.75
2022-08-26T05:51:44.468Z,1.47
2022-08-26T05:54:10.954Z,1.60
2022-08-26T05:56:38.648Z,2.75
2022-08-26T05:59:06.023Z,1.77
2022-08-26T06:01:41.207Z,1.70
2022-08-26T06:04:07.823Z,1.60
2022-08-26T06:06:36.734Z,1.70
2022-08-26T06:09:05.803Z,1.80
2022-08-26T06:11:32.747Z,1.73
2022-08-26T06:14:03.958Z,1.52
2022-08-26T06:16:32.237Z,1.57
2022-08-26T06:18:58.828Z,1.77
2022-08-26T06:21:32.620Z,1.83
2022-08-26T06:24:02.314Z,1.70
2022-08-26T06:26:29.581Z,2.05
2022-08-26T06:28:56.408Z,1.70
2022-08-26T06:31:23.811Z,1.85
2022-08-26T06:33:50.988Z,1.70
2022-08-26T06:36:23.428Z,1.70
2022-08-26T06:38:52.000Z,1.90
2022-08-26T06:41:20.955Z,1.70
2022-08-26T06:43:49.145Z,1.77
2022-08-26T06:46:19.202Z,2.28
2022-08-26T06:48:46.418Z,1.52
2022-08-26T06:51:16.687Z,1.83
2022-08-26T06:53:45.301Z,1.67
2022-08-26T06:56:12.032Z,1.55
2022-08-26T06:58:40.589Z,3.17
2022-08-26T07:01:25.730Z,1.92
2022-08-26T07:03:54.610Z,1.60
2022-08-26T07:06:24.195Z,1.60
2022-08-26T07:08:54.011Z,1.40
2022-08-26T07:11:21.069Z,1.48
2022-08-26T07:13:47.959Z,1.38
2022-08-26T07:16:19.703Z,1.55
2022-08-26T07:18:47.359Z,1.30
2022-08-26T07:21:16.258Z,1.30
2022-08-26T07:23:44.862Z,1.30
2022-08-26T07:26:15.226Z,1.20
2022-08-26T07:28:43.052Z,1.38
2022-08-26T07:31:12.655Z,1.40
2022-08-26T07:33:39.514Z,1.30
2022-08-26T07:36:08.950Z,1.35
2022-08-26T07:38:37.245Z,1.30
2022-08-26T07:41:04.006Z,1.70
2022-08-26T07:43:31.050Z,1.20
2022-08-26T07:45:58.136Z,1.23
2022-08-26T07:48:24.857Z,1.27
2022-08-26T07:50:51.417Z,1.10
2022-08-26T07:53:21.245Z,1.10
2022-08-26T07:55:49.122Z,1.23
2022-08-26T07:58:17.203Z,1.33
2022-08-26T08:00:44.621Z,1.50
2022-08-26T08:03:11.345Z,1.30
2022-08-26T08:05:38.462Z,1.30
2022-08-26T08:08:27.326Z,1.30
2022-08-26T08:10:56.480Z,1.20
2022-08-26T08:13:23.628Z,1.20
2022-08-26T08:15:50.414Z,1.20
2022-08-26T08:18:18.205Z,1.17
2022-08-26T08:20:54.707Z,1.17
2022-08-26T08:23:32.428Z,1.02
2022-08-26T08:26:06.670Z,1.33
2022-08-26T08:28:35.867Z,1.10
2022-08-26T08:31:02.728Z,1.10
2022-08-26T08:33:29.890Z,1.10
2022-08-26T08:35:57.779Z,1.30
2022-08-26T08:38:24.697Z,1.10
2022-08-26T08:40:51.446Z,0.98
2022-08-26T08:43:38.038Z,1.30
2022-08-26T08:46:10.170Z,1.10
2022-08-26T08:48:43.458Z,1.02
2022-08-26T08:51:33.022Z,1.00
2022-08-26T08:54:00.932Z,1.20
2022-08-26T08:56:33.613Z,1.15
2022-08-26T08:59:22.539Z,1.00
2022-08-26T09:01:52.401Z,1.10
2022-08-26T09:04:29.316Z,1.10
2022-08-26T09:09:36.316Z,1.10
2022-08-26T09:12:04.082Z,1.00
2022-08-26T09:14:31.731Z,1.20
2022-08-26T09:17:21.486Z,1.40
2022-08-26T09:19:54.285Z,1.50
2022-08-26T09:22:32.488Z,1.33
2022-08-26T09:25:00.996Z,0.93
2022-08-26T09:27:46.967Z,1.08
2022-08-26T09:30:30.895Z,1.10
2022-08-26T09:33:11.154Z,1.10
2022-08-26T09:35:43.571Z,0.90
2022-08-26T09:38:26.887Z,0.90
2022-08-26T09:41:00.495Z,0.90
2022-08-26T09:43:27.668Z,1.00
2022-08-26T09:46:10.272Z,1.00
2022-08-26T09:48:40.528Z,1.20
2022-08-26T09:51:28.072Z,1.00
2022-08-26T09:54:00.093Z,1.10
2022-08-26T09:56:29.915Z,1.10
2022-08-26T09:58:57.091Z,1.00
2022-08-26T10:01:23.570Z,1.30
2022-08-26T10:03:50.848Z,1.03
2022-08-26T10:06:17.604Z,1.00
2022-08-26T10:08:52.274Z,1.10
2022-08-26T10:11:24.499Z,1.02
2022-08-26T10:13:59.430Z,1.05
2022-08-26T10:16:34.339Z,1.10
2022-08-26T10:19:11.984Z,1.10
2022-08-26T10:21:49.450Z,1.27
2022-08-26T10:24:26.034Z,1.00
2022-08-26T10:27:04.160Z,1.00
2022-08-26T10:29:43.168Z,0.87
2022-08-26T10:32:26.991Z,0.88
2022-08-26T10:34:54.476Z,1.00
2022-08-26T10:37:23.967Z,1.00
2022-08-26T10:40:02.551Z,1.00
2022-08-26T10:42:50.672Z,1.13
2022-08-26T10:45:21.255Z,0.90
2022-08-26T10:48:00.374Z,1.02
2022-08-26T10:50:32.862Z,1.30
2022-08-26T10:53:05.385Z,1.10
2022-08-26T10:55:48.407Z,1.00
2022-08-26T10:58:26.058Z,1.15
2022-08-26T11:00:59.900Z,1.00
2022-08-26T11:03:29.484Z,1.10
2022-08-26T11:06:19.284Z,1.10
2022-08-26T11:08:47.796Z,1.00
2022-08-26T11:11:40.081Z,1.20
2022-08-26T11:14:11.405Z,1.08
2022-08-26T11:16:43.962Z,1.00
2022-08-26T11:19:45.628Z,1.15
2022-08-26T11:22:34.136Z,1.30
2022-08-26T11:25:02.965Z,1.50
2022-08-26T11:27:35.322Z,1.60
2022-08-26T11:30:01.717Z,1.50
2022-08-26T11:32:34.110Z,1.30
2022-08-26T11:35:09.556Z,1.50
2022-08-26T11:37:42.479Z,1.20
2022-08-26T11:40:14.433Z,1.30
2022-08-26T11:42:40.993Z,1.20
2022-08-26T11:45:22.653Z,1.20
2022-08-26T11:47:50.178Z,1.03
2022-08-26T11:50:24.982Z,1.10
2022-08-26T11:52:57.002Z,1.33
2022-08-26T11:55:24.243Z,1.50
2022-08-26T11:57:55.751Z,1.67
2022-08-26T12:00:26.151Z,1.40
2022-08-26T12:02:53.486Z,1.40
2022-08-26T12:05:29.576Z,1.60
2022-08-26T12:08:01.867Z,1.70
2022-08-26T12:10:32.090Z,1.40
2022-08-26T12:13:00.224Z,1.50
2022-08-26T12:15:29.772Z,1.40
2022-08-26T12:17:57.229Z,1.40
2022-08-26T12:20:35.224Z,1.58
2022-08-26T12:23:01.884Z,1.48
2022-08-26T12:25:28.745Z,1.50
2022-08-26T12:28:05.520Z,1.60
2022-08-26T12:30:32.227Z,1.60
2022-08-26T12:33:22.665Z,1.50
2022-08-26T12:35:54.341Z,1.63
2022-08-26T12:38:22.312Z,1.47
2022-08-26T12:40:49.263Z,1.40
2022-08-26T12:43:36.707Z,1.65
2022-08-26T12:46:03.521Z,1.77
2022-08-26T12:48:36.373Z,1.85
2022-08-26T12:51:05.880Z,1.53
2022-08-26T12:53:34.827Z,1.52
2022-08-26T12:56:04.398Z,1.95
2022-08-26T12:58:36.530Z,1.60
2022-08-26T13:01:05.973Z,1.52
2022-08-26T13:03:35.180Z,1.40
2022-08-26T13:06:23.267Z,1.65
2022-08-26T13:08:52.211Z,1.60
2022-08-26T13:11:23.217Z,1.63
2022-08-26T13:14:02.292Z,1.60
2022-08-26T13:16:34.886Z,1.50
2022-08-26T13:19:05.984Z,1.63
2022-08-26T13:21:51.327Z,1.70
2022-08-26T13:24:21.657Z,1.70
2022-08-26T13:26:49.965Z,1.45
2022-08-26T13:29:17.635Z,1.90
2022-08-26T13:31:45.208Z,1.98
2022-08-26T13:34:15.049Z,1.60
2022-08-26T13:36:41.742Z,1.90
2022-08-26T13:39:08.477Z,1.85
2022-08-26T13:41:34.937Z,1.60
2022-08-26T13:44:01.515Z,1.65
2022-08-26T13:46:28.910Z,1.50
2022-08-26T13:48:59.329Z,1.67
2022-08-26T13:51:27.082Z,1.90
2022-08-26T13:53:54.310Z,1.60
2022-08-26T13:56:21.807Z,1.50
2022-08-26T13:58:49.552Z,1.50
2022-08-26T14:01:18.317Z,1.80
2022-08-26T14:03:45.151Z,1.60
2022-08-26T14:06:12.801Z,1.70
2022-08-26T14:08:40.686Z,1.60
2022-08-26T14:11:07.684Z,1.63
2022-08-26T14:13:34.658Z,1.70
2022-08-26T14:16:02.797Z,1.35
2022-08-26T14:18:32.576Z,1.63
2022-08-26T14:20:59.509Z,1.70
2022-08-26T14:23:26.764Z,1.50
2022-08-26T14:25:54.080Z,1.60
2022-08-26T14:28:20.623Z,1.70
2022-08-26T14:30:57.069Z,1.47
2022-08-26T14:33:30.731Z,1.60
2022-08-26T14:35:57.645Z,1.58
2022-08-26T14:38:24.182Z,1.40
2022-08-26T14:40:50.711Z,1.80
2022-08-26T14:43:17.305Z,1.80
2022-08-26T14:45:44.459Z,1.92
2022-08-26T14:48:11.067Z,2.00
2022-08-26T14:50:37.657Z,1.80
2022-08-26T14:53:04.428Z,1.70
2022-08-26T14:55:34.161Z,1.70
2022-08-26T14:58:01.004Z,1.85
2022-08-26T15:00:27.625Z,1.70
2022-08-26T15:02:54.381Z,1.50
2022-08-26T15:05:21.239Z,1.67
2022-08-26T15:07:48.143Z,1.60
2022-08-26T15:10:16.736Z,1.92
2022-08-26T15:12:44.912Z,1.75
2022-08-26T15:15:13.706Z,1.67
2022-08-26T15:17:40.262Z,1.60
2022-08-26T15:20:07.780Z,1.57
2022-08-26T15:22:34.575Z,1.45
2022-08-26T15:25:01.082Z,2.00
2022-08-26T15:27:28.140Z,1.40
2022-08-26T15:29:54.726Z,1.60
2022-08-26T15:32:21.197Z,1.80
2022-08-26T15:34:47.985Z,1.77
2022-08-26T15:37:14.495Z,1.60
2022-08-26T15:39:40.986Z,1.40
2022-08-26T15:42:07.681Z,1.50
2022-08-26T15:44:34.367Z,1.57
2022-08-26T15:47:00.911Z,1.42
2022-08-26T15:49:27.651Z,1.60
2022-08-26T15:51:54.148Z,1.60
2022-08-26T15:54:23.253Z,1.70
2022-08-26T15:56:50.446Z,1.43
2022-08-26T15:59:18.285Z,1.45
2022-08-26T16:01:45.217Z,1.60
2022-08-26T16:04:11.874Z,1.38
2022-08-26T16:06:40.938Z,1.52
2022-08-26T16:09:08.588Z,1.50
2022-08-26T16:11:36.137Z,1.80
2022-08-26T16:14:03.851Z,1.70
2022-08-26T16:16:30.719Z,1.77
2022-08-26T16:18:57.340Z,1.70
2022-08-26T16:21:26.528Z,1.47
2022-08-26T16:23:53.014Z,1.60
2022-08-26T16:26:23.355Z,1.80
2022-08-26T16:28:49.829Z,2.15
2022-08-26T16:31:17.259Z,1.90
2022-08-26T16:33:44.068Z,1.70
2022-08-26T16:36:11.339Z,1.67
2022-08-26T16:38:38.837Z,1.40
2022-08-26T16:41:06.556Z,1.55
2022-08-26T16:43:33.358Z,1.90
2022-08-26T16:45:59.898Z,1.90
2022-08-26T16:48:26.510Z,1.63
2022-08-26T16:50:52.992Z,1.88
2022-08-26T16:53:19.479Z,1.90
2022-08-26T16:55:50.542Z,1.90
2022-08-26T16:58:18.115Z,1.90
2022-08-26T17:00:44.677Z,2.20
2022-08-26T17:03:11.574Z,1.80
2022-08-26T17:05:38.238Z,1.80
2022-08-26T17:08:05.562Z,2.00
2022-08-26T17:10:32.779Z,1.63
2022-08-26T17:12:59.537Z,1.92
2022-08-26T17:15:29.196Z,1.60
2022-08-26T17:17:56.489Z,1.73
2022-08-26T17:20:24.832Z,1.75
2022-08-26T17:22:53.546Z,1.73
2022-08-26T17:25:21.945Z,2.00
2022-08-26T17:27:49.110Z,1.90
2022-08-26T17:30:16.856Z,1.92
2022-08-26T17:32:44.389Z,2.00
2022-08-26T17:35:11.669Z,2.00
2022-08-26T17:37:40.208Z,1.90
2022-08-26T17:40:10.954Z,1.92
2022-08-26T17:42:39.273Z,1.88
2022-08-26T17:45:06.806Z,1.80
2022-08-26T17:47:34.465Z,1.53
2022-08-26T17:50:01.204Z,1.80
2022-08-26T17:52:28.916Z,2.00
2022-08-26T17:54:55.501Z,1.80
2022-08-26T17:57:23.008Z,1.80
2022-08-26T17:59:50.140Z,1.90
2022-08-26T18:02:20.236Z,1.80
2022-08-26T18:04:46.784Z,2.08
2022-08-26T18:07:13.272Z,1.70
2022-08-26T18:09:39.768Z,1.63
2022-08-26T18:12:06.649Z,2.00
2022-08-26T18:14:34.050Z,1.77
2022-08-26T18:17:00.700Z,2.00
2022-08-26T18:19:27.422Z,1.95
2022-08-26T18:21:54.049Z,1.90
2022-08-26T18:24:20.508Z,1.93
2022-08-26T18:26:47.023Z,2.13
2022-08-26T18:29:13.595Z,1.70
2022-08-26T18:31:40.125Z,1.77
2022-08-26T18:34:06.626Z,1.70
2022-08-26T18:36:36.527Z,2.60
2022-08-26T18:39:05.139Z,2.20
2022-08-26T18:41:33.528Z,2.22
2022-08-26T18:44:00.219Z,2.10
2022-08-26T18:46:27.769Z,2.30
2022-08-26T18:48:56.293Z,2.37
2022-08-26T18:51:26.592Z,1.98
2022-08-26T18:53:53.571Z,2.20
2022-08-26T18:56:20.140Z,2.00
2022-08-26T18:58:47.472Z,2.22
2022-08-26T19:01:15.277Z,2.30
2022-08-26T19:03:42.063Z,2.33
2022-08-26T19:06:13.285Z,2.28
2022-08-26T19:08:42.651Z,2.22
2022-08-26T19:11:12.167Z,2.40
2022-08-26T19:13:44.179Z,2.10
2022-08-26T19:16:24.962Z,2.20
2022-08-26T19:18:52.585Z,2.30
2022-08-26T19:21:29.819Z,2.30
2022-08-26T19:23:58.680Z,2.60
2022-08-26T19:26:26.143Z,2.60
2022-08-26T19:28:52.753Z,2.50
2022-08-26T19:31:19.436Z,2.72
2022-08-26T19:33:46.033Z,2.83
2022-08-26T19:36:16.045Z,3.28
2022-08-26T19:38:42.687Z,2.50
2022-08-26T19:41:18.703Z,2.53
2022-08-26T19:43:46.129Z,2.50
2022-08-26T19:46:21.641Z,2.20
2022-08-26T19:48:51.813Z,2.45
2022-08-26T19:51:25.852Z,2.40
2022-08-26T19:53:54.364Z,2.30
2022-08-26T19:56:22.059Z,2.50
2022-08-26T19:58:50.005Z,2.70
2022-08-26T20:03:58.364Z,2.40
2022-08-26T20:06:24.959Z,2.65
2022-08-26T20:08:52.114Z,2.90
2022-08-26T20:11:22.666Z,2.60
2022-08-26T20:13:49.250Z,2.53
2022-08-26T20:16:16.844Z,2.50
2022-08-26T20:18:44.527Z,2.42
2022-08-26T20:21:11.583Z,2.60
2022-08-26T20:23:38.419Z,2.38
2022-08-26T20:26:05.435Z,2.80
2022-08-26T20:28:32.855Z,2.63
2022-08-26T20:31:00.162Z,2.40
2022-08-26T20:33:26.673Z,2.75
2022-08-26T20:35:53.363Z,2.78
2022-08-26T20:38:21.610Z,3.03
2022-08-26T20:40:49.043Z,3.17
2022-08-26T20:43:15.507Z,3.03
2022-08-26T20:45:42.066Z,3.00
2022-08-26T20:48:08.652Z,2.70
2022-08-26T20:50:35.425Z,2.90
2022-08-26T20:53:01.961Z,2.80
2022-08-26T20:55:28.512Z,3.28
2022-08-26T20:57:55.043Z,2.90
2022-08-26T21:00:21.668Z,2.70
2022-08-26T21:02:50.438Z,2.80
2022-08-26T21:05:18.478Z,2.53
2022-08-26T21:07:45.561Z,2.53
2022-08-26T21:10:12.891Z,2.35
2022-08-26T21:12:39.373Z,2.80
2022-08-26T21:15:06.631Z,2.65
2022-08-26T21:17:33.869Z,2.83
2022-08-26T21:20:00.363Z,2.70
2022-08-26T21:22:26.875Z,2.80
2022-08-26T21:24:53.893Z,2.55
2022-08-26T21:27:23.169Z,2.80
2022-08-26T21:29:53.025Z,2.70
2022-08-26T21:32:19.509Z,2.88
2022-08-26T21:34:45.963Z,2.92
2022-08-26T21:37:15.270Z,2.80
2022-08-26T21:39:43.553Z,2.97
2022-08-26T21:42:10.043Z,2.40
2022-08-26T21:44:36.530Z,2.60
2022-08-26T21:47:03.075Z,2.63
2022-08-26T21:49:29.567Z,2.40
2022-08-26T21:51:56.027Z,2.58
2022-08-26T21:54:22.445Z,2.40
2022-08-26T21:56:49.411Z,2.38
2022-08-26T21:59:18.765Z,2.55
2022-08-26T22:01:45.694Z,2.70
2022-08-26T22:04:12.258Z,2.60
2022-08-26T22:06:48.371Z,2.40
2022-08-26T22:09:20.196Z,2.50
2022-08-26T22:11:48.041Z,2.70
2022-08-26T22:14:16.635Z,2.75
2022-08-26T22:16:44.473Z,2.83
2022-08-26T22:19:17.323Z,2.40
2022-08-26T22:21:44.145Z,2.42
2022-08-26T22:24:10.648Z,2.55
2022-08-26T22:26:37.068Z,2.42
2022-08-26T22:29:04.668Z,2.40
2022-08-26T22:31:37.648Z,2.60
2022-08-26T22:34:12.075Z,2.38
2022-08-26T22:36:43.787Z,2.67
2022-08-26T22:39:11.558Z,2.58
2022-08-26T22:41:38.014Z,2.47
2022-08-26T22:44:04.518Z,2.50
2022-08-26T22:46:31.037Z,2.42
2022-08-26T22:48:57.509Z,2.50
2022-08-26T22:51:24.000Z,2.53
2022-08-26T22:53:50.584Z,2.40
2022-08-26T22:56:17.972Z,2.43
2022-08-26T22:58:44.768Z,2.60
2022-08-26T23:01:11.416Z,2.72
2022-08-26T23:03:37.982Z,2.60
2022-08-26T23:06:08.874Z,2.90
2022-08-26T23:08:35.502Z,2.50
2022-08-26T23:11:02.313Z,2.70
2022-08-26T23:13:28.797Z,2.50
2022-08-26T23:16:04.062Z,2.80
2022-08-26T23:18:30.610Z,2.80
2022-08-26T23:20:57.184Z,2.57
2022-08-26T23:23:24.567Z,2.80
2022-08-26T23:25:51.283Z,2.90
2022-08-26T23:28:17.917Z,2.53
2022-08-26T23:30:44.391Z,2.70
2022-08-26T23:33:10.911Z,3.10
2022-08-26T23:35:37.348Z,2.47
2022-08-26T23:38:06.637Z,2.75
2022-08-26T23:40:36.899Z,2.70
2022-08-26T23:43:06.583Z,2.55
2022-08-26T23:45:34.129Z,2.90
2022-08-26T23:48:01.283Z,2.47
2022-08-26T23:50:30.199Z,2.75
2022-08-26T23:52:56.702Z,2.60
2022-08-26T23:55:23.258Z,2.70
2022-08-26T23:57:50.056Z,2.63
